Toyo — JD2815 — position and weather

sailwx.info

Track history (hours):
 
Tides and Currents Weather Stations Pressure Air Temp Water Temp Dewpoint Dewpoint Depression Visibility Wind Speed Wind Dir Waves Ship Positions

Toyo

Last reported at 2017-Dec-09 06:07 UTC. Time now 2017-Dec-12 06:18 UTC.
Position N 34°41' E 135°12'.

Length 28 m; draft 1.8 m.

Type: Other ship. MMSI: 431000747.

Date/timePositionNaut miles runAvg speedWind from/ knotsBaromVisibWave heightAir tempDewpointWater temp
2017-Dec-09 06:07N 34°41' E 135°12'0 0.0
2017-Dec-09 06:01N 34°41' E 135°12'5 9.7
2017-Dec-09 05:30N 34°38' E 135°08'815.1
2017-Dec-09 05:00N 34°38' E 134°59'2 4.6
2017-Dec-09 04:30N 34°37' E 135°02'5 9.4
2017-Dec-09 04:01N 34°35' E 135°07'2 3.5
2017-Dec-09 03:31N 34°35' E 135°09'612.5
2017-Dec-09 03:01N 34°41' E 135°12'0 0.7
2017-Dec-09 02:28N 34°41' E 135°12'0 0.0
2017-Dec-09 01:58N 34°41' E 135°12'0 0.0
2017-Dec-09 01:28N 34°41' E 135°12'0 0.0
2017-Dec-09 00:58N 34°41' E 135°12'0 0.0
2017-Dec-09 00:28N 34°41' E 135°12'0 0.0
2017-Dec-08 23:58N 34°41' E 135°12'0 0.0
2017-Dec-08 23:28N 34°41' E 135°12'0 0.0
2017-Dec-08 22:58N 34°41' E 135°12'0 0.0
2017-Dec-08 22:28N 34°41' E 135°12'0 0.0
2017-Dec-08 21:58N 34°41' E 135°12'0 0.0
2017-Dec-08 21:28N 34°41' E 135°12'0 0.0
2017-Dec-08 20:58N 34°41' E 135°12'0 0.0
2017-Dec-08 20:25N 34°41' E 135°12'0 0.0
2017-Dec-08 19:58N 34°41' E 135°12'4 8.5
2017-Dec-08 19:31N 34°38' E 135°10'918.0
2017-Dec-08 19:00N 34°38' E 134°59'3 5.3
2017-Dec-08 18:30N 34°37' E 135°02'5 9.3
2017-Dec-08 18:00N 34°35' E 135°07'3 5.8
2017-Dec-08 17:30N 34°36' E 135°10'611.0
2017-Dec-08 17:01N 34°41' E 135°12'0 0.3
2017-Dec-08 16:30N 34°41' E 135°12'0 0.0
2017-Dec-08 05:44N 34°41' E 135°12'2 7.4
2017-Dec-08 05:31N 34°40' E 135°12'816.3
2017-Dec-08 05:00N 34°32' E 135°07'917.4
2017-Dec-08 04:30N 34°25' E 135°01'919.1
2017-Dec-08 04:00N 34°16' E 134°58'510.6
2017-Dec-08 03:31N 34°21' E 134°60'612.0
2017-Dec-08 03:01N 34°25' E 135°05'713.2
2017-Dec-08 02:30N 34°29' E 135°11'612.7
2017-Dec-08 02:00N 34°33' E 135°18'510.2
2017-Dec-08 01:30N 34°33' E 135°24'1 2.4
2017-Dec-08 01:01N 34°33' E 135°25'0 0.7
2017-Dec-08 00:31N 34°33' E 135°25'510.2
2017-Dec-08 00:00N 34°35' E 135°19'713.3
2017-Dec-07 23:31N 34°41' E 135°14'2 3.7
2017-Dec-07 23:01N 34°41' E 135°12'0 0.0
2017-Dec-07 22:31N 34°41' E 135°12'0 0.0
2017-Dec-07 02:47N 34°41' E 135°12'2 5.7
2017-Dec-07 02:30N 34°40' E 135°11'1 1.7
2017-Dec-07 02:01N 34°40' E 135°12'815.9
2017-Dec-07 01:31N 34°36' E 135°20'5 9.9
2017-Dec-07 01:01N 34°33' E 135°25'2 4.8
2017-Dec-07 00:30N 34°33' E 135°22'611.6
2017-Dec-07 00:00N 34°32' E 135°16'714.5
2017-Dec-06 23:30N 34°27' E 135°08'714.3
2017-Dec-06 23:00N 34°22' E 135°03'714.5
2017-Dec-06 22:30N 34°15' E 134°59'5 9.2
2017-Dec-06 21:59N 34°11' E 134°60'2 4.2
2017-Dec-06 21:30N 34°13' E 135°00'611.8
2017-Dec-06 21:00N 34°18' E 134°58'  
2017-Dec-03 05:41N 34°41' E 135°12'1 5.9
2017-Dec-03 05:31N 34°40' E 135°12'815.7
2017-Dec-03 05:00N 34°34' E 135°06'714.4
2017-Dec-03 04:30N 34°36' E 134°57'1 1.2
2017-Dec-03 04:00N 34°36' E 134°57'0 0.4
2017-Dec-03 03:30N 34°36' E 134°57'1 2.6
2017-Dec-03 03:00N 34°36' E 134°59'2 3.3
2017-Dec-03 02:30N 34°36' E 135°01'2 3.7
2017-Dec-03 02:01N 34°36' E 135°03'611.0
2017-Dec-03 01:30N 34°36' E 134°56'3 5.1
2017-Dec-03 01:00N 34°37' E 134°58'612.7
2017-Dec-03 00:30N 34°37' E 135°06'612.2
2017-Dec-03 00:00N 34°41' E 135°12'0 0.9
2017-Dec-02 23:30N 34°41' E 135°12'0 0.0
2017-Dec-02 23:00N 34°41' E 135°12'2 0.0
2017-Nov-30 22:20N 34°40' E 135°11'0 0.0
2017-Nov-30 22:00N 34°40' E 135°11'1 2.8
2017-Nov-30 21:31N 34°39' E 135°11'715.0
2017-Nov-30 21:01N 34°36' E 135°03'3 6.6
2017-Nov-30 20:30N 34°38' E 134°60'510.4
2017-Nov-30 20:00N 34°35' E 135°05'3 5.9
2017-Nov-30 19:30N 34°35' E 135°09'2 3.3
2017-Nov-30 19:00N 34°36' E 135°10'611.1
2017-Nov-30 18:30N 34°41' E 135°12'0 0.1
2017-Nov-30 18:00N 34°41' E 135°12'0 0.0
2017-Nov-30 01:59N 34°41' E 135°12'611.6
2017-Nov-30 01:31N 34°37' E 135°08'917.6
2017-Nov-30 01:00N 34°36' E 134°57'917.3
2017-Nov-30 00:30N 34°33' E 134°48'1017.1
2017-Nov-29 23:55N 34°29' E 134°36'28 7.4
2017-Nov-29 20:10N 34°27' E 134°03'1512.0
2017-Nov-29 18:54N 34°25' E 134°21'2 2.8
2017-Nov-29 18:13N 34°26' E 134°23'1 6.4
2017-Nov-29 18:00N 34°26' E 134°25'3 6.1
2017-Nov-29 17:30N 34°28' E 134°28'3 6.2
2017-Nov-29 17:00N 34°29' E 134°31'4 7.5
2017-Nov-29 16:30N 34°30' E 134°36'4 7.8
2017-Nov-29 16:00N 34°32' E 134°40'4 8.1
2017-Nov-29 15:30N 34°33' E 134°45'510.5
2017-Nov-29 15:00N 34°35' E 134°51'611.3
2017-Nov-29 14:30N 34°37' E 134°57'4 7.5
2017-Nov-29 14:00N 34°37' E 135°02'4 8.7
2017-Nov-29 13:30N 34°35' E 135°06'510.5
2017-Nov-29 13:00N 34°38' E 135°11'3 6.2
2017-Nov-29 12:30N 34°41' E 135°12'0 0.1
2017-Nov-29 12:00N 34°41' E 135°12'0 0.0
2017-Nov-29 11:30N 34°41' E 135°12'0 0.0
2017-Nov-29 11:00N 34°41' E 135°12'0 0.0
2017-Nov-29 10:30N 34°41' E 135°12'0 0.0
2017-Nov-29 10:00N 34°41' E 135°12'0 0.1
2017-Nov-29 09:30N 34°41' E 135°12'  
Track history (hours):
 
Tides and Currents Weather Stations Pressure Air Temp Water Temp Dewpoint Dewpoint Depression Visibility Wind Speed Wind Dir Waves Ship Positions

Toyo

Last reported at 2017-Dec-09 06:07 UTC. Time now 2017-Dec-12 06:18 UTC.
Position N 34°41' E 135°12'.

Length 28 m; draft 1.8 m.

Type: Other ship. MMSI: 431000747.

Date/timePositionNaut miles runAvg speedWind from/ knotsBaromVisibWave heightAir tempDewpointWater temp
2017-Dec-09 06:07N 34°41' E 135°12'0 0.0
2017-Dec-09 06:01N 34°41' E 135°12'5 9.7
2017-Dec-09 05:30N 34°38' E 135°08'815.1
2017-Dec-09 05:00N 34°38' E 134°59'2 4.6
2017-Dec-09 04:30N 34°37' E 135°02'5 9.4
2017-Dec-09 04:01N 34°35' E 135°07'2 3.5
2017-Dec-09 03:31N 34°35' E 135°09'612.5
2017-Dec-09 03:01N 34°41' E 135°12'0 0.7
2017-Dec-09 02:28N 34°41' E 135°12'0 0.0
2017-Dec-09 01:58N 34°41' E 135°12'0 0.0
2017-Dec-09 01:28N 34°41' E 135°12'0 0.0
2017-Dec-09 00:58N 34°41' E 135°12'0 0.0
2017-Dec-09 00:28N 34°41' E 135°12'0 0.0
2017-Dec-08 23:58N 34°41' E 135°12'0 0.0
2017-Dec-08 23:28N 34°41' E 135°12'0 0.0
2017-Dec-08 22:58N 34°41' E 135°12'0 0.0
2017-Dec-08 22:28N 34°41' E 135°12'0 0.0
2017-Dec-08 21:58N 34°41' E 135°12'0 0.0
2017-Dec-08 21:28N 34°41' E 135°12'0 0.0
2017-Dec-08 20:58N 34°41' E 135°12'0 0.0
2017-Dec-08 20:25N 34°41' E 135°12'0 0.0
2017-Dec-08 19:58N 34°41' E 135°12'4 8.5
2017-Dec-08 19:31N 34°38' E 135°10'918.0
2017-Dec-08 19:00N 34°38' E 134°59'3 5.3
2017-Dec-08 18:30N 34°37' E 135°02'5 9.3
2017-Dec-08 18:00N 34°35' E 135°07'3 5.8
2017-Dec-08 17:30N 34°36' E 135°10'611.0
2017-Dec-08 17:01N 34°41' E 135°12'0 0.3
2017-Dec-08 16:30N 34°41' E 135°12'0 0.0
2017-Dec-08 05:44N 34°41' E 135°12'2 7.4
2017-Dec-08 05:31N 34°40' E 135°12'816.3
2017-Dec-08 05:00N 34°32' E 135°07'917.4
2017-Dec-08 04:30N 34°25' E 135°01'919.1
2017-Dec-08 04:00N 34°16' E 134°58'510.6
2017-Dec-08 03:31N 34°21' E 134°60'612.0
2017-Dec-08 03:01N 34°25' E 135°05'713.2
2017-Dec-08 02:30N 34°29' E 135°11'612.7
2017-Dec-08 02:00N 34°33' E 135°18'510.2
2017-Dec-08 01:30N 34°33' E 135°24'1 2.4
2017-Dec-08 01:01N 34°33' E 135°25'0 0.7
2017-Dec-08 00:31N 34°33' E 135°25'510.2
2017-Dec-08 00:00N 34°35' E 135°19'713.3
2017-Dec-07 23:31N 34°41' E 135°14'2 3.7
2017-Dec-07 23:01N 34°41' E 135°12'0 0.0
2017-Dec-07 22:31N 34°41' E 135°12'0 0.0
2017-Dec-07 02:47N 34°41' E 135°12'2 5.7
2017-Dec-07 02:30N 34°40' E 135°11'1 1.7
2017-Dec-07 02:01N 34°40' E 135°12'815.9
2017-Dec-07 01:31N 34°36' E 135°20'5 9.9
2017-Dec-07 01:01N 34°33' E 135°25'2 4.8
2017-Dec-07 00:30N 34°33' E 135°22'611.6
2017-Dec-07 00:00N 34°32' E 135°16'714.5
2017-Dec-06 23:30N 34°27' E 135°08'714.3
2017-Dec-06 23:00N 34°22' E 135°03'714.5
2017-Dec-06 22:30N 34°15' E 134°59'5 9.2
2017-Dec-06 21:59N 34°11' E 134°60'2 4.2
2017-Dec-06 21:30N 34°13' E 135°00'611.8
2017-Dec-06 21:00N 34°18' E 134°58'  
2017-Dec-03 05:41N 34°41' E 135°12'1 5.9
2017-Dec-03 05:31N 34°40' E 135°12'815.7
2017-Dec-03 05:00N 34°34' E 135°06'714.4
2017-Dec-03 04:30N 34°36' E 134°57'1 1.2
2017-Dec-03 04:00N 34°36' E 134°57'0 0.4
2017-Dec-03 03:30N 34°36' E 134°57'1 2.6
2017-Dec-03 03:00N 34°36' E 134°59'2 3.3
2017-Dec-03 02:30N 34°36' E 135°01'2 3.7
2017-Dec-03 02:01N 34°36' E 135°03'611.0
2017-Dec-03 01:30N 34°36' E 134°56'3 5.1
2017-Dec-03 01:00N 34°37' E 134°58'612.7
2017-Dec-03 00:30N 34°37' E 135°06'612.2
2017-Dec-03 00:00N 34°41' E 135°12'0 0.9
2017-Dec-02 23:30N 34°41' E 135°12'0 0.0
2017-Dec-02 23:00N 34°41' E 135°12'2 0.0
2017-Nov-30 22:20N 34°40' E 135°11'0 0.0
2017-Nov-30 22:00N 34°40' E 135°11'1 2.8
2017-Nov-30 21:31N 34°39' E 135°11'715.0
2017-Nov-30 21:01N 34°36' E 135°03'3 6.6
2017-Nov-30 20:30N 34°38' E 134°60'510.4
2017-Nov-30 20:00N 34°35' E 135°05'3 5.9
2017-Nov-30 19:30N 34°35' E 135°09'2 3.3
2017-Nov-30 19:00N 34°36' E 135°10'611.1
2017-Nov-30 18:30N 34°41' E 135°12'0 0.1
2017-Nov-30 18:00N 34°41' E 135°12'0 0.0
2017-Nov-30 01:59N 34°41' E 135°12'611.6
2017-Nov-30 01:31N 34°37' E 135°08'917.6
2017-Nov-30 01:00N 34°36' E 134°57'917.3
2017-Nov-30 00:30N 34°33' E 134°48'1017.1
2017-Nov-29 23:55N 34°29' E 134°36'28 7.4
2017-Nov-29 20:10N 34°27' E 134°03'1512.0
2017-Nov-29 18:54N 34°25' E 134°21'2 2.8
2017-Nov-29 18:13N 34°26' E 134°23'1 6.4
2017-Nov-29 18:00N 34°26' E 134°25'3 6.1
2017-Nov-29 17:30N 34°28' E 134°28'3 6.2
2017-Nov-29 17:00N 34°29' E 134°31'4 7.5
2017-Nov-29 16:30N 34°30' E 134°36'4 7.8
2017-Nov-29 16:00N 34°32' E 134°40'4 8.1
2017-Nov-29 15:30N 34°33' E 134°45'510.5
2017-Nov-29 15:00N 34°35' E 134°51'611.3
2017-Nov-29 14:30N 34°37' E 134°57'4 7.5
2017-Nov-29 14:00N 34°37' E 135°02'4 8.7
2017-Nov-29 13:30N 34°35' E 135°06'510.5
2017-Nov-29 13:00N 34°38' E 135°11'3 6.2
2017-Nov-29 12:30N 34°41' E 135°12'0 0.1
2017-Nov-29 12:00N 34°41' E 135°12'0 0.0
2017-Nov-29 11:30N 34°41' E 135°12'0 0.0
2017-Nov-29 11:00N 34°41' E 135°12'0 0.0
2017-Nov-29 10:30N 34°41' E 135°12'0 0.0
2017-Nov-29 10:00N 34°41' E 135°12'0 0.1
2017-Nov-29 09:30N 34°41' E 135°12'  

Dump ship's entire track history